sensor_id;sensor_type;location;lat;lon;timestamp;pressure;altitude;pressure_sealevel;temperature
43802;BMP280;29429;51.074;13.764;2022-07-23T00:00:20;100075.94;;;21.52
43802;BMP280;29429;51.074;13.764;2022-07-23T00:02:48;100082.44;;;21.46
43802;BMP280;29429;51.074;13.764;2022-07-23T00:05:15;100083.25;;;21.51
43802;BMP280;29429;51.074;13.764;2022-07-23T00:07:42;100075.09;;;21.46
43802;BMP280;29429;51.074;13.764;2022-07-23T00:10:09;100072.94;;;21.43
43802;BMP280;29429;51.074;13.764;2022-07-23T00:12:37;100071.28;;;21.37
43802;BMP280;29429;51.074;13.764;2022-07-23T00:15:18;100070.72;;;21.35
43802;BMP280;29429;51.074;13.764;2022-07-23T00:17:45;100066.41;;;21.39
43802;BMP280;29429;51.074;13.764;2022-07-23T00:20:12;100062.59;;;21.40
43802;BMP280;29429;51.074;13.764;2022-07-23T00:22:51;100066.94;;;21.36
43802;BMP280;29429;51.074;13.764;2022-07-23T00:25:21;100068.81;;;21.31
43802;BMP280;29429;51.074;13.764;2022-07-23T00:27:55;100067.44;;;21.23
43802;BMP280;29429;51.074;13.764;2022-07-23T00:30:22;100059.00;;;21.14
43802;BMP280;29429;51.074;13.764;2022-07-23T00:32:52;100063.25;;;21.00
43802;BMP280;29429;51.074;13.764;2022-07-23T00:35:29;100061.03;;;20.92
43802;BMP280;29429;51.074;13.764;2022-07-23T00:37:57;100059.91;;;20.78
43802;BMP280;29429;51.074;13.764;2022-07-23T00:40:26;100058.50;;;20.71
43802;BMP280;29429;51.074;13.764;2022-07-23T00:42:53;100060.44;;;20.75
43802;BMP280;29429;51.074;13.764;2022-07-23T00:45:20;100053.66;;;20.78
43802;BMP280;29429;51.074;13.764;2022-07-23T00:47:48;100053.66;;;20.78
43802;BMP280;29429;51.074;13.764;2022-07-23T00:50:15;100064.50;;;20.78
43802;BMP280;29429;51.074;13.764;2022-07-23T00:52:42;100065.84;;;20.70
43802;BMP280;29429;51.074;13.764;2022-07-23T00:55:11;100070.91;;;20.56
43802;BMP280;29429;51.074;13.764;2022-07-23T00:57:40;100072.97;;;20.44
43802;BMP280;29429;51.074;13.764;2022-07-23T01:00:12;100068.56;;;20.33
43802;BMP280;29429;51.074;13.764;2022-07-23T01:02:39;100063.13;;;20.33
43802;BMP280;29429;51.074;13.764;2022-07-23T01:05:07;100064.28;;;20.37
43802;BMP280;29429;51.074;13.764;2022-07-23T01:07:35;100056.16;;;20.42
43802;BMP280;29429;51.074;13.764;2022-07-23T01:10:04;100048.88;;;20.43
43802;BMP280;29429;51.074;13.764;2022-07-23T01:12:32;100048.31;;;20.41
43802;BMP280;29429;51.074;13.764;2022-07-23T01:15:00;100045.56;;;20.36
43802;BMP280;29429;51.074;13.764;2022-07-23T01:17:28;100044.75;;;20.35
43802;BMP280;29429;51.074;13.764;2022-07-23T01:19:55;100046.38;;;20.36
43802;BMP280;29429;51.074;13.764;2022-07-23T01:24:50;100026.88;;;20.39
43802;BMP280;29429;51.074;13.764;2022-07-23T01:27:22;100026.34;;;20.37
43802;BMP280;29429;51.074;13.764;2022-07-23T01:29:54;100018.19;;;20.37
43802;BMP280;29429;51.074;13.764;2022-07-23T01:32:22;100018.22;;;20.42
43802;BMP280;29429;51.074;13.764;2022-07-23T01:34:49;100007.97;;;20.49
43802;BMP280;29429;51.074;13.764;2022-07-23T01:37:16;100000.94;;;20.48
43802;BMP280;29429;51.074;13.764;2022-07-23T01:39:44;99999.56;;;20.46
43802;BMP280;29429;51.074;13.764;2022-07-23T01:42:11;99993.88;;;20.47
43802;BMP280;29429;51.074;13.764;2022-07-23T01:44:39;99987.88;;;20.40
43802;BMP280;29429;51.074;13.764;2022-07-23T01:47:10;99991.63;;;20.34
43802;BMP280;29429;51.074;13.764;2022-07-23T01:49:37;99977.53;;;20.32
43802;BMP280;29429;51.074;13.764;2022-07-23T01:52:27;99977.22;;;20.24
43802;BMP280;29429;51.074;13.764;2022-07-23T01:54:54;99975.81;;;20.21
43802;BMP280;29429;51.074;13.764;2022-07-23T01:57:21;99982.84;;;20.17
43802;BMP280;29429;51.074;13.764;2022-07-23T01:59:48;99981.75;;;20.18
43802;BMP280;29429;51.074;13.764;2022-07-23T02:02:18;99980.38;;;20.16
43802;BMP280;29429;51.074;13.764;2022-07-23T02:04:45;99979.84;;;20.19
43802;BMP280;29429;51.074;13.764;2022-07-23T02:07:15;99969.91;;;20.24
43802;BMP280;29429;51.074;13.764;2022-07-23T02:09:42;99974.81;;;20.32
43802;BMP280;29429;51.074;13.764;2022-07-23T02:12:11;99974.81;;;20.27
43802;BMP280;29429;51.074;13.764;2022-07-23T02:14:38;99972.09;;;20.27
43802;BMP280;29429;51.074;13.764;2022-07-23T02:17:05;99972.13;;;20.37
43802;BMP280;29429;51.074;13.764;2022-07-23T02:19:34;99974.34;;;20.45
43802;BMP280;29429;51.074;13.764;2022-07-23T02:22:01;99972.72;;;20.49
43802;BMP280;29429;51.074;13.764;2022-07-23T02:24:28;99971.97;;;20.54
43802;BMP280;29429;51.074;13.764;2022-07-23T02:26:55;99972.19;;;20.52
43802;BMP280;29429;51.074;13.764;2022-07-23T02:29:22;99965.97;;;20.52
43802;BMP280;29429;51.074;13.764;2022-07-23T02:31:49;99963.50;;;20.40
43802;BMP280;29429;51.074;13.764;2022-07-23T02:34:16;99967.78;;;20.36
43802;BMP280;29429;51.074;13.764;2022-07-23T02:36:43;99972.66;;;20.34
43802;BMP280;29429;51.074;13.764;2022-07-23T02:39:11;99978.34;;;20.33
43802;BMP280;29429;51.074;13.764;2022-07-23T02:41:38;99971.59;;;20.35
43802;BMP280;29429;51.074;13.764;2022-07-23T02:44:05;99969.69;;;20.36
43802;BMP280;29429;51.074;13.764;2022-07-23T02:46:32;99956.44;;;20.39
43802;BMP280;29429;51.074;13.764;2022-07-23T02:49:00;99965.66;;;20.38
43802;BMP280;29429;51.074;13.764;2022-07-23T02:51:30;99953.66;;;20.29
43802;BMP280;29429;51.074;13.764;2022-07-23T02:54:01;99948.25;;;20.29
43802;BMP280;29429;51.074;13.764;2022-07-23T02:56:28;99947.44;;;20.29
43802;BMP280;29429;51.074;13.764;2022-07-23T02:58:56;99938.75;;;20.27
43802;BMP280;29429;51.074;13.764;2022-07-23T03:01:23;99941.78;;;20.35
43802;BMP280;29429;51.074;13.764;2022-07-23T03:03:50;99945.03;;;20.37
43802;BMP280;29429;51.074;13.764;2022-07-23T03:06:18;99945.59;;;20.39
43802;BMP280;29429;51.074;13.764;2022-07-23T03:08:45;99951.81;;;20.40
43802;BMP280;29429;51.074;13.764;2022-07-23T03:11:11;99946.38;;;20.35
43802;BMP280;29429;51.074;13.764;2022-07-23T03:13:41;99946.53;;;20.18
43802;BMP280;29429;51.074;13.764;2022-07-23T03:16:08;99949.22;;;20.13
43802;BMP280;29429;51.074;13.764;2022-07-23T03:18:36;99944.91;;;20.17
43802;BMP280;29429;51.074;13.764;2022-07-23T03:21:07;99943.34;;;20.26
43802;BMP280;29429;51.074;13.764;2022-07-23T03:23:34;99943.69;;;20.35
43802;BMP280;29429;51.074;13.764;2022-07-23T03:26:01;99946.44;;;20.45
43802;BMP280;29429;51.074;13.764;2022-07-23T03:28:28;99936.16;;;20.52
43802;BMP280;29429;51.074;13.764;2022-07-23T03:30:55;99949.44;;;20.53
43802;BMP280;29429;51.074;13.764;2022-07-23T03:33:23;99939.16;;;20.55
43802;BMP280;29429;51.074;13.764;2022-07-23T03:35:50;99936.97;;;20.57
43802;BMP280;29429;51.074;13.764;2022-07-23T03:38:26;99928.84;;;20.57
43802;BMP280;29429;51.074;13.764;2022-07-23T03:40:53;99918.59;;;20.64
43802;BMP280;29429;51.074;13.764;2022-07-23T03:43:20;99916.97;;;20.69
43802;BMP280;29429;51.074;13.764;2022-07-23T03:45:47;99919.16;;;20.72
43802;BMP280;29429;51.074;13.764;2022-07-23T03:48:14;99920.78;;;20.73
43802;BMP280;29429;51.074;13.764;2022-07-23T03:50:43;99927.00;;;20.73
43802;BMP280;29429;51.074;13.764;2022-07-23T03:53:10;99926.75;;;20.75
43802;BMP280;29429;51.074;13.764;2022-07-23T03:55:37;99925.09;;;20.69
43802;BMP280;29429;51.074;13.764;2022-07-23T03:58:04;99930.50;;;20.58
43802;BMP280;29429;51.074;13.764;2022-07-23T04:00:31;99919.13;;;20.61
43802;BMP280;29429;51.074;13.764;2022-07-23T04:02:59;99923.22;;;20.69
43802;BMP280;29429;51.074;13.764;2022-07-23T04:05:27;99935.69;;;20.65
43802;BMP280;29429;51.074;13.764;2022-07-23T04:08:03;99927.25;;;20.61
43802;BMP280;29429;51.074;13.764;2022-07-23T04:10:31;99929.97;;;20.61
43802;BMP280;29429;51.074;13.764;2022-07-23T04:12:57;99918.00;;;20.57
43802;BMP280;29429;51.074;13.764;2022-07-23T04:15:24;99929.97;;;20.61
43802;BMP280;29429;51.074;13.764;2022-07-23T04:17:52;99918.59;;;20.64
43802;BMP280;29429;51.074;13.764;2022-07-23T04:20:19;99925.63;;;20.60
43802;BMP280;29429;51.074;13.764;2022-07-23T04:22:53;99922.88;;;20.50
43802;BMP280;29429;51.074;13.764;2022-07-23T04:25:21;99919.63;;;20.48
43802;BMP280;29429;51.074;13.764;2022-07-23T04:27:49;99920.13;;;20.40
43802;BMP280;29429;51.074;13.764;2022-07-23T04:30:16;99914.13;;;20.33
43802;BMP280;29429;51.074;13.764;2022-07-23T04:32:43;99925.53;;;20.40
43802;BMP280;29429;51.074;13.764;2022-07-23T04:35:19;99934.75;;;20.39
43802;BMP280;29429;51.074;13.764;2022-07-23T04:37:47;99937.50;;;20.49
43802;BMP280;29429;51.074;13.764;2022-07-23T04:40:15;99942.97;;;20.59
43802;BMP280;29429;51.074;13.764;2022-07-23T04:42:42;99945.19;;;20.68
43802;BMP280;29429;51.074;13.764;2022-07-23T04:45:09;99940.03;;;20.71
43802;BMP280;29429;51.074;13.764;2022-07-23T04:47:40;99931.63;;;20.68
43802;BMP280;29429;51.074;13.764;2022-07-23T04:50:07;99928.41;;;20.76
43802;BMP280;29429;51.074;13.764;2022-07-23T04:52:36;99933.53;;;20.72
43802;BMP280;29429;51.074;13.764;2022-07-23T04:55:05;99935.69;;;20.70
43802;BMP280;29429;51.074;13.764;2022-07-23T04:57:32;99930.00;;;20.72
43802;BMP280;29429;51.074;13.764;2022-07-23T04:59:59;99923.19;;;20.64
43802;BMP280;29429;51.074;13.764;2022-07-23T05:02:26;99922.38;;;20.69
43802;BMP280;29429;51.074;13.764;2022-07-23T05:04:53;99926.47;;;20.76
43802;BMP280;29429;51.074;13.764;2022-07-23T05:07:20;99919.16;;;20.82
43802;BMP280;29429;51.074;13.764;2022-07-23T05:09:47;99915.69;;;20.86
43802;BMP280;29429;51.074;13.764;2022-07-23T05:12:14;99925.19;;;20.94
43802;BMP280;29429;51.074;13.764;2022-07-23T05:14:42;99924.38;;;20.98
43802;BMP280;29429;51.074;13.764;2022-07-23T05:17:09;99930.63;;;20.99
43802;BMP280;29429;51.074;13.764;2022-07-23T05:19:36;99933.66;;;21.17
43802;BMP280;29429;51.074;13.764;2022-07-23T05:22:04;99937.75;;;21.35
43802;BMP280;29429;51.074;13.764;2022-07-23T05:24:31;99944.28;;;21.44
43802;BMP280;29429;51.074;13.764;2022-07-23T05:26:58;99949.69;;;21.49
43802;BMP280;29429;51.074;13.764;2022-07-23T05:29:26;99947.53;;;21.51
43802;BMP280;29429;51.074;13.764;2022-07-23T05:31:53;99943.72;;;21.52
43802;BMP280;29429;51.074;13.764;2022-07-23T05:34:21;99947.25;;;21.63
43802;BMP280;29429;51.074;13.764;2022-07-23T05:36:48;99939.09;;;21.68
43802;BMP280;29429;51.074;13.764;2022-07-23T05:39:15;99940.47;;;21.70
43802;BMP280;29429;51.074;13.764;2022-07-23T05:41:43;99952.13;;;21.66
43802;BMP280;29429;51.074;13.764;2022-07-23T05:44:10;99972.75;;;21.72
43802;BMP280;29429;51.074;13.764;2022-07-23T05:46:39;99986.88;;;21.69
43802;BMP280;29429;51.074;13.764;2022-07-23T05:49:09;99996.38;;;21.76
43802;BMP280;29429;51.074;13.764;2022-07-23T05:52:11;100002.09;;;21.75
43802;BMP280;29429;51.074;13.764;2022-07-23T05:54:54;100002.34;;;21.68
43802;BMP280;29429;51.074;13.764;2022-07-23T05:57:21;100005.06;;;21.58
43802;BMP280;29429;51.074;13.764;2022-07-23T05:59:51;99993.66;;;21.51
43802;BMP280;29429;51.074;13.764;2022-07-23T06:02:18;100011.59;;;21.52
43802;BMP280;29429;51.074;13.764;2022-07-23T06:04:46;100028.44;;;21.49
43802;BMP280;29429;51.074;13.764;2022-07-23T06:07:24;100051.50;;;21.47
43802;BMP280;29429;51.074;13.764;2022-07-23T06:09:51;100054.44;;;21.40
43802;BMP280;29429;51.074;13.764;2022-07-23T06:12:19;100053.38;;;21.31
43802;BMP280;29429;51.074;13.764;2022-07-23T06:14:46;100048.47;;;21.23
43802;BMP280;29429;51.074;13.764;2022-07-23T06:17:15;100054.13;;;21.21
43802;BMP280;29429;51.074;13.764;2022-07-23T06:19:42;100050.91;;;21.30
43802;BMP280;29429;51.074;13.764;2022-07-23T06:22:09;100068.00;;;21.25
43802;BMP280;29429;51.074;13.764;2022-07-23T06:24:37;100069.88;;;21.24
43802;BMP280;29429;51.074;13.764;2022-07-23T06:27:04;100067.09;;;21.04
43802;BMP280;29429;51.074;13.764;2022-07-23T06:31:58;100061.81;;;20.83
43802;BMP280;29429;51.074;13.764;2022-07-23T06:34:25;100062.31;;;20.75
43802;BMP280;29429;51.074;13.764;2022-07-23T06:36:54;100068.53;;;20.70
43802;BMP280;29429;51.074;13.764;2022-07-23T06:39:21;100076.44;;;20.77
43802;BMP280;29429;51.074;13.764;2022-07-23T06:44:57;100083.50;;;20.78
43802;BMP280;29429;51.074;13.764;2022-07-23T06:47:24;100081.31;;;20.75
43802;BMP280;29429;51.074;13.764;2022-07-23T06:49:51;100076.44;;;20.77
43802;BMP280;29429;51.074;13.764;2022-07-23T06:52:18;100082.72;;;20.87
43802;BMP280;29429;51.074;13.764;2022-07-23T06:54:45;100074.59;;;20.92
43802;BMP280;29429;51.074;13.764;2022-07-23T06:57:12;100071.00;;;20.77
43802;BMP280;29429;51.074;13.764;2022-07-23T06:59:38;100068.75;;;20.63
43802;BMP280;29429;51.074;13.764;2022-07-23T07:02:08;100064.38;;;20.57
43802;BMP280;29429;51.074;13.764;2022-07-23T07:04:35;100073.66;;;20.61
43802;BMP280;29429;51.074;13.764;2022-07-23T07:07:02;100077.97;;;20.62
43802;BMP280;29429;51.074;13.764;2022-07-23T07:09:29;100069.97;;;20.83
43802;BMP280;29429;51.074;13.764;2022-07-23T07:11:56;100055.22;;;20.69
43802;BMP280;29429;51.074;13.764;2022-07-23T07:14:23;100052.03;;;20.77
43802;BMP280;29429;51.074;13.764;2022-07-23T07:16:50;100024.44;;;20.95
43802;BMP280;29429;51.074;13.764;2022-07-23T07:19:17;100037.81;;;21.06
43802;BMP280;29429;51.074;13.764;2022-07-23T07:21:44;100034.88;;;21.18
43802;BMP280;29429;51.074;13.764;2022-07-23T07:24:11;100037.34;;;21.35
43802;BMP280;29429;51.074;13.764;2022-07-23T07:26:38;100020.00;;;21.46
43802;BMP280;29429;51.074;13.764;2022-07-23T07:29:06;100037.41;;;21.55
43802;BMP280;29429;51.074;13.764;2022-07-23T07:31:33;100044.19;;;21.52
43802;BMP280;29429;51.074;13.764;2022-07-23T07:34:00;100036.56;;;21.44
43802;BMP280;29429;51.074;13.764;2022-07-23T07:36:27;100037.34;;;21.35
43802;BMP280;29429;51.074;13.764;2022-07-23T07:38:54;100041.41;;;21.32
43802;BMP280;29429;51.074;13.764;2022-07-23T07:41:21;100040.88;;;21.40
43802;BMP280;29429;51.074;13.764;2022-07-23T07:43:52;100045.53;;;21.55
43802;BMP280;29429;51.074;13.764;2022-07-23T07:46:19;100047.97;;;21.61
43802;BMP280;29429;51.074;13.764;2022-07-23T07:48:46;100062.91;;;21.54
43802;BMP280;29429;51.074;13.764;2022-07-23T07:51:13;100062.91;;;21.54
43802;BMP280;29429;51.074;13.764;2022-07-23T07:53:40;100055.31;;;21.61
43802;BMP280;29429;51.074;13.764;2022-07-23T07:56:07;100061.63;;;21.97
43802;BMP280;29429;51.074;13.764;2022-07-23T07:58:35;100053.38;;;22.62
43802;BMP280;29429;51.074;13.764;2022-07-23T08:01:03;100048.13;;;22.96
43802;BMP280;29429;51.074;13.764;2022-07-23T08:03:30;100037.97;;;23.12
43802;BMP280;29429;51.074;13.764;2022-07-23T08:05:58;100028.97;;;23.65
43802;BMP280;29429;51.074;13.764;2022-07-23T08:08:25;100004.56;;;24.17
43802;BMP280;29429;51.074;13.764;2022-07-23T08:10:52;100010.16;;;24.55
43802;BMP280;29429;51.074;13.764;2022-07-23T08:13:19;100005.25;;;24.75
43802;BMP280;29429;51.074;13.764;2022-07-23T08:15:46;100009.34;;;24.78
43802;BMP280;29429;51.074;13.764;2022-07-23T08:18:14;100019.03;;;24.42
43802;BMP280;29429;51.074;13.764;2022-07-23T08:20:41;100004.50;;;24.22
43802;BMP280;29429;51.074;13.764;2022-07-23T08:23:09;99997.84;;;24.34
43802;BMP280;29429;51.074;13.764;2022-07-23T08:25:41;99992.63;;;24.37
43802;BMP280;29429;51.074;13.764;2022-07-23T08:28:12;99990.94;;;24.65
43802;BMP280;29429;51.074;13.764;2022-07-23T08:30:42;99999.22;;;25.02
43802;BMP280;29429;51.074;13.764;2022-07-23T08:33:15;100010.66;;;24.86
43802;BMP280;29429;51.074;13.764;2022-07-23T08:36:02;100006.72;;;24.68
43802;BMP280;29429;51.074;13.764;2022-07-23T08:38:32;100003.31;;;24.81
43802;BMP280;29429;51.074;13.764;2022-07-23T08:40:59;100001.31;;;24.63
43802;BMP280;29429;51.074;13.764;2022-07-23T08:43:29;99996.88;;;24.72
43802;BMP280;29429;51.074;13.764;2022-07-23T08:45:59;100007.19;;;24.75
43802;BMP280;29429;51.074;13.764;2022-07-23T08:48:35;99997.22;;;24.89
43802;BMP280;29429;51.074;13.764;2022-07-23T08:51:06;100002.41;;;25.09
43802;BMP280;29429;51.074;13.764;2022-07-23T08:53:34;99999.81;;;25.36
43802;BMP280;29429;51.074;13.764;2022-07-23T08:56:06;99995.50;;;25.54
43802;BMP280;29429;51.074;13.764;2022-07-23T08:58:34;99994.25;;;25.79
43802;BMP280;29429;51.074;13.764;2022-07-23T09:01:02;100003.34;;;26.07
43802;BMP280;29429;51.074;13.764;2022-07-23T09:03:35;100003.09;;;26.22
43802;BMP280;29429;51.074;13.764;2022-07-23T09:06:02;100004.94;;;26.40
43802;BMP280;29429;51.074;13.764;2022-07-23T09:08:39;100005.28;;;26.38
43802;BMP280;29429;51.074;13.764;2022-07-23T09:11:09;100005.38;;;26.47
43802;BMP280;29429;51.074;13.764;2022-07-23T09:13:52;100017.56;;;26.68
43802;BMP280;29429;51.074;13.764;2022-07-23T09:16:30;100019.06;;;26.60
43802;BMP280;29429;51.074;13.764;2022-07-23T09:19:06;100025.13;;;26.30
43802;BMP280;29429;51.074;13.764;2022-07-23T09:21:37;100033.09;;;26.13
43802;BMP280;29429;51.074;13.764;2022-07-23T09:24:09;100018.78;;;26.16
43802;BMP280;29429;51.074;13.764;2022-07-23T09:26:46;100009.31;;;26.27
43802;BMP280;29429;51.074;13.764;2022-07-23T09:29:23;100014.06;;;26.35
43802;BMP280;29429;51.074;13.764;2022-07-23T09:31:54;100016.81;;;26.35
43802;BMP280;29429;51.074;13.764;2022-07-23T09:34:31;100010.53;;;26.48
43802;BMP280;29429;51.074;13.764;2022-07-23T09:37:14;100002.34;;;26.62
43802;BMP280;29429;51.074;13.764;2022-07-23T09:39:43;100007.59;;;26.72
43802;BMP280;29429;51.074;13.764;2022-07-23T09:42:18;100009.16;;;26.78
43802;BMP280;29429;51.074;13.764;2022-07-23T09:44:49;100020.72;;;26.89
43802;BMP280;29429;51.074;13.764;2022-07-23T09:47:18;100027.59;;;27.00
43802;BMP280;29429;51.074;13.764;2022-07-23T09:50:06;100032.84;;;27.10
43802;BMP280;29429;51.074;13.764;2022-07-23T09:52:46;100035.69;;;27.18
43802;BMP280;29429;51.074;13.764;2022-07-23T09:55:17;100028.38;;;27.14
43802;BMP280;29429;51.074;13.764;2022-07-23T09:57:45;100033.66;;;27.10
43802;BMP280;29429;51.074;13.764;2022-07-23T10:00:16;100038.59;;;27.22
43802;BMP280;29429;51.074;13.764;2022-07-23T10:02:46;100026.19;;;27.38
43802;BMP280;29429;51.074;13.764;2022-07-23T10:05:26;100025.06;;;27.39
43802;BMP280;29429;51.074;13.764;2022-07-23T10:08:17;100030.16;;;27.46
43802;BMP280;29429;51.074;13.764;2022-07-23T10:11:03;100037.09;;;27.65
43802;BMP280;29429;51.074;13.764;2022-07-23T10:14:01;100042.22;;;27.80
43802;BMP280;29429;51.074;13.764;2022-07-23T10:16:51;100042.22;;;27.80
43802;BMP280;29429;51.074;13.764;2022-07-23T10:19:18;100040.97;;;27.87
43802;BMP280;29429;51.074;13.764;2022-07-23T10:21:54;100038.72;;;27.89
43802;BMP280;29429;51.074;13.764;2022-07-23T10:30:36;100038.69;;;28.33
43802;BMP280;29429;51.074;13.764;2022-07-23T10:36:44;100058.94;;;27.93
43802;BMP280;29429;51.074;13.764;2022-07-23T10:39:29;100063.13;;;27.90
43802;BMP280;29429;51.074;13.764;2022-07-23T10:42:17;100065.97;;;27.85
43802;BMP280;29429;51.074;13.764;2022-07-23T10:44:47;100056.38;;;27.74
43802;BMP280;29429;51.074;13.764;2022-07-23T10:47:30;100054.53;;;27.69
43802;BMP280;29429;51.074;13.764;2022-07-23T10:50:27;100066.41;;;27.78
43802;BMP280;29429;51.074;13.764;2022-07-23T10:58:05;100067.75;;;27.45
43802;BMP280;29429;51.074;13.764;2022-07-23T11:00:35;100061.06;;;27.24
43802;BMP280;29429;51.074;13.764;2022-07-23T11:03:33;100059.81;;;27.30
43802;BMP280;29429;51.074;13.764;2022-07-23T11:06:04;100058.88;;;27.48
43802;BMP280;29429;51.074;13.764;2022-07-23T11:08:31;100069.06;;;27.70
43802;BMP280;29429;51.074;13.764;2022-07-23T11:13:37;100064.03;;;27.63
43802;BMP280;29429;51.074;13.764;2022-07-23T11:16:08;100064.16;;;27.58
43802;BMP280;29429;51.074;13.764;2022-07-23T11:24:17;100073.63;;;27.97
43802;BMP280;29429;51.074;13.764;2022-07-23T11:26:53;100077.91;;;28.03
43802;BMP280;29429;51.074;13.764;2022-07-23T11:34:53;100072.19;;;27.41
43802;BMP280;29429;51.074;13.764;2022-07-23T11:40:14;100078.31;;;27.11
43802;BMP280;29429;51.074;13.764;2022-07-23T11:43:05;100092.19;;;27.01
43802;BMP280;29429;51.074;13.764;2022-07-23T11:45:38;100103.78;;;26.98
43802;BMP280;29429;51.074;13.764;2022-07-23T11:48:09;100087.22;;;26.76
43802;BMP280;29429;51.074;13.764;2022-07-23T11:50:36;100093.06;;;26.69
43802;BMP280;29429;51.074;13.764;2022-07-23T11:53:03;100093.78;;;26.47
43802;BMP280;29429;51.074;13.764;2022-07-23T11:55:30;100084.28;;;26.26
43802;BMP280;29429;51.074;13.764;2022-07-23T11:57:58;100094.94;;;26.09
43802;BMP280;29429;51.074;13.764;2022-07-23T12:00:30;100090.88;;;26.07
43802;BMP280;29429;51.074;13.764;2022-07-23T12:03:00;100098.84;;;26.22
43802;BMP280;29429;51.074;13.764;2022-07-23T12:05:35;100097.09;;;26.44
43802;BMP280;29429;51.074;13.764;2022-07-23T12:08:09;100098.63;;;26.50
43802;BMP280;29429;51.074;13.764;2022-07-23T12:10:43;100100.81;;;26.35
43802;BMP280;29429;51.074;13.764;2022-07-23T12:13:14;100094.72;;;25.87
43802;BMP280;29429;51.074;13.764;2022-07-23T12:15:45;100109.38;;;25.59
43802;BMP280;29429;51.074;13.764;2022-07-23T12:18:22;100107.94;;;25.42
43802;BMP280;29429;51.074;13.764;2022-07-23T12:20:55;100101.78;;;25.32
43802;BMP280;29429;51.074;13.764;2022-07-23T12:23:25;100111.69;;;25.28
43802;BMP280;29429;51.074;13.764;2022-07-23T12:25:54;100123.56;;;25.37
43802;BMP280;29429;51.074;13.764;2022-07-23T12:28:32;100120.09;;;25.31
43802;BMP280;29429;51.074;13.764;2022-07-23T12:31:00;100117.16;;;25.28
43802;BMP280;29429;51.074;13.764;2022-07-23T12:33:37;100104.91;;;25.44
43802;BMP280;29429;51.074;13.764;2022-07-23T12:36:08;100104.66;;;25.64
43802;BMP280;29429;51.074;13.764;2022-07-23T12:38:42;100121.47;;;25.90
43802;BMP280;29429;51.074;13.764;2022-07-23T12:41:10;100110.84;;;26.07
43802;BMP280;29429;51.074;13.764;2022-07-23T12:43:43;100117.50;;;26.20
43802;BMP280;29429;51.074;13.764;2022-07-23T12:46:21;100111.47;;;26.36
43802;BMP280;29429;51.074;13.764;2022-07-23T12:51:30;100114.44;;;26.53
43802;BMP280;29429;51.074;13.764;2022-07-23T12:54:07;100115.34;;;26.49
43802;BMP280;29429;51.074;13.764;2022-07-23T12:56:40;100115.13;;;26.45
43802;BMP280;29429;51.074;13.764;2022-07-23T12:59:16;100113.31;;;26.41
43802;BMP280;29429;51.074;13.764;2022-07-23T13:01:54;100112.47;;;26.40
43802;BMP280;29429;51.074;13.764;2022-07-23T13:04:24;100116.03;;;26.41
43802;BMP280;29429;51.074;13.764;2022-07-23T13:06:58;100115.91;;;26.32
43802;BMP280;29429;51.074;13.764;2022-07-23T13:09:29;100107.00;;;26.40
43802;BMP280;29429;51.074;13.764;2022-07-23T13:12:00;100115.16;;;26.59
43802;BMP280;29429;51.074;13.764;2022-07-23T13:14:28;100110.50;;;26.59
43802;BMP280;29429;51.074;13.764;2022-07-23T13:16:56;100113.34;;;26.54
43802;BMP280;29429;51.074;13.764;2022-07-23T13:19:26;100118.31;;;26.52
43802;BMP280;29429;51.074;13.764;2022-07-23T13:21:54;100109.22;;;26.71
43802;BMP280;29429;51.074;13.764;2022-07-23T13:24:22;100108.28;;;26.75
43802;BMP280;29429;51.074;13.764;2022-07-23T13:26:49;100123.34;;;26.78
43802;BMP280;29429;51.074;13.764;2022-07-23T13:29:18;100110.91;;;26.67
43802;BMP280;29429;51.074;13.764;2022-07-23T13:31:46;100107.28;;;26.71
43802;BMP280;29429;51.074;13.764;2022-07-23T13:34:15;100116.38;;;26.67
43802;BMP280;29429;51.074;13.764;2022-07-23T13:36:41;100113.63;;;26.53
43802;BMP280;29429;51.074;13.764;2022-07-23T13:39:10;100106.91;;;26.45
43802;BMP280;29429;51.074;13.764;2022-07-23T13:41:38;100109.88;;;26.49
43802;BMP280;29429;51.074;13.764;2022-07-23T13:44:06;100105.34;;;26.72
43802;BMP280;29429;51.074;13.764;2022-07-23T13:46:34;100117.28;;;26.94
43802;BMP280;29429;51.074;13.764;2022-07-23T13:49:02;100120.50;;;27.10
43802;BMP280;29429;51.074;13.764;2022-07-23T13:55:17;100106.31;;;27.22
43802;BMP280;29429;51.074;13.764;2022-07-23T13:57:44;100108.94;;;27.13
43802;BMP280;29429;51.074;13.764;2022-07-23T14:00:15;100113.41;;;27.09
43802;BMP280;29429;51.074;13.764;2022-07-23T14:03:03;100108.41;;;27.25
43802;BMP280;29429;51.074;13.764;2022-07-23T14:05:31;100101.81;;;27.39
43802;BMP280;29429;51.074;13.764;2022-07-23T14:07:59;100117.34;;;27.30
43802;BMP280;29429;51.074;13.764;2022-07-23T14:10:26;100108.84;;;27.18
43802;BMP280;29429;51.074;13.764;2022-07-23T14:12:53;100110.97;;;27.07
43802;BMP280;29429;51.074;13.764;2022-07-23T14:15:25;100108.56;;;26.92
43802;BMP280;29429;51.074;13.764;2022-07-23T14:18:02;100107.31;;;26.85
43802;BMP280;29429;51.074;13.764;2022-07-23T14:21:17;100114.09;;;26.74
43802;BMP280;29429;51.074;13.764;2022-07-23T14:23:44;100107.56;;;26.70
43802;BMP280;29429;51.074;13.764;2022-07-23T14:26:11;100115.19;;;26.73
43802;BMP280;29429;51.074;13.764;2022-07-23T14:28:40;100111.13;;;26.70
43802;BMP280;29429;51.074;13.764;2022-07-23T14:31:07;100111.56;;;26.77
43802;BMP280;29429;51.074;13.764;2022-07-23T14:33:46;100106.41;;;26.89
43802;BMP280;29429;51.074;13.764;2022-07-23T14:36:15;100118.38;;;27.07
43802;BMP280;29429;51.074;13.764;2022-07-23T14:38:42;100110.47;;;27.19
43802;BMP280;29429;51.074;13.764;2022-07-23T14:41:09;100105.28;;;27.17
43802;BMP280;29429;51.074;13.764;2022-07-23T14:43:37;100096.34;;;27.39
43802;BMP280;29429;51.074;13.764;2022-07-23T14:46:05;100098.78;;;27.41
43802;BMP280;29429;51.074;13.764;2022-07-23T14:48:32;100099.81;;;27.45
43802;BMP280;29429;51.074;13.764;2022-07-23T14:50:59;100095.25;;;27.40